LGSA

Chania

Airport
ICAO code
LGSA
IATA Code
CHQ
Summary
ICAO Region
EUR
ICAO Territory
Location

Souda Bay, Crete

Serving
Chania
Elevation
490 ft
Coordinates
35° 31' 54" N , 24° 8' 59" E
KCC
Airport WX
Low Level Turbulence
Metar
Observation
LGSA 271520Z 06010KT 9999 SCT025 BKN100 15/10 Q1014
Station
Souda Airport
Date/Time
2022-11-27 15:20:00
Wind direction
60°
Wind speed
10 kts
Lowest cloud amount
scattered clouds
Temperature
15°C
Dew point
10°C
Humidity
72%
QNH
1014 hPa
Weather condition
n/a

Description

Joint civil/military international airport serving the city of Chania on the island of Crete.

Climatology

Mediterranean climate (Köppen climate classification Csa) - Hot, dry summer and a mild wet winter.

Runways

Designator Length Width Surface Rops
11/29 3347 45 ASP Yes/Yes

Airport map

Aerial View

Airport accidents

SKYbrary Partners:

Safety knowledge contributed by: